Time;durP1;ratioP1;P1;durP2;ratioP2;P2;SDS_P1;SDS_P2;PMS_P1;PMS_P2;Temp;Humidity;BMP_temperature;BMP_pressure;BME280_temperature;BME280_humidity;BME280_pressure;Samples;Min_cycle;Max_cycle;Signal;HPM_P1;HPM_P2
2024/02/21 00:00:52;;;;;;;5.27;1.70;;;15.70;99.90;;;;;;5006966;28;20072;-77
2024/02/21 00:03:19;;;;;;;4.03;1.58;;;15.70;99.90;;;;;;5003640;28;20045;-77
2024/02/21 00:05:45;;;;;;;4.20;1.70;;;15.70;99.90;;;;;;5001422;28;20026;-77
2024/02/21 00:08:10;;;;;;;4.67;1.63;;;15.70;99.90;;;;;;4994007;28;20415;-77
2024/02/21 00:10:36;;;;;;;6.03;1.90;;;15.70;99.90;;;;;;5005214;28;20052;-81
2024/02/21 00:13:03;;;;;;;8.40;1.30;;;15.70;99.90;;;;;;5000740;28;20500;-77
2024/02/21 00:15:28;;;;;;;2.83;1.48;;;15.70;99.90;;;;;;4991611;28;20030;-79
2024/02/21 00:17:54;;;;;;;2.63;1.27;;;15.70;99.90;;;;;;4992787;28;20149;-77
2024/02/21 00:20:20;;;;;;;6.53;1.40;;;15.70;99.90;;;;;;5008975;28;20113;-76
2024/02/21 00:22:46;;;;;;;3.93;1.40;;;15.70;99.90;;;;;;5006803;28;20121;-77
2024/02/21 00:25:12;;;;;;;3.63;1.30;;;15.70;99.90;;;;;;5001819;28;20033;-75
2024/02/21 00:27:39;;;;;;;3.10;1.17;;;15.70;99.90;;;;;;5000326;28;20034;-75
2024/02/21 00:30:05;;;;;;;;;;;15.60;99.90;;;;;;5002366;28;20129;-80
2024/02/21 00:32:32;;;;;;;4.82;1.83;;;15.70;99.90;;;;;;5001851;28;20278;-80
2024/02/21 00:34:57;;;;;;;2.17;1.52;;;15.70;99.90;;;;;;5006548;28;20534;-76
2024/02/21 00:37:23;;;;;;;3.70;1.70;;;15.60;99.90;;;;;;4996885;28;20065;-78
2024/02/21 00:39:49;;;;;;;3.30;1.20;;;15.70;99.90;;;;;;4996735;28;20057;-77
2024/02/21 00:42:14;;;;;;;4.43;1.47;;;15.60;99.90;;;;;;4995794;28;20022;-77
2024/02/21 00:44:40;;;;;;;2.53;1.23;;;15.60;99.90;;;;;;4998244;28;20027;-79
2024/02/21 00:47:06;;;;;;;6.17;1.83;;;15.60;99.90;;;;;;5002180;28;20814;-78
2024/02/21 00:49:31;;;;;;;7.93;1.57;;;15.60;99.90;;;;;;5007726;28;20038;-77
2024/02/21 00:51:57;;;;;;;5.63;1.67;;;15.60;99.90;;;;;;5005511;28;20522;-78
2024/02/21 00:54:23;;;;;;;5.10;1.60;;;15.60;99.90;;;;;;4995993;28;20744;-78
2024/02/21 00:56:48;;;;;;;4.40;1.67;;;15.60;99.90;;;;;;5003871;28;20040;-78
2024/02/21 00:59:14;;;;;;;3.73;1.40;;;15.60;99.90;;;;;;5002229;28;20107;-78
2024/02/21 01:01:42;;;;;;;3.97;1.27;;;15.60;99.90;;;;;;5006195;28;20494;-78
2024/02/21 01:04:09;;;;;;;1.58;1.30;;;15.60;99.90;;;;;;5008917;28;20026;-78
2024/02/21 01:06:34;;;;;;;6.47;1.77;;;15.60;99.90;;;;;;5008512;28;20392;-78
2024/02/21 01:09:00;;;;;;;4.10;1.40;;;15.60;99.90;;;;;;4995419;28;20161;-78
2024/02/21 01:11:26;;;;;;;5.03;1.30;;;15.60;99.90;;;;;;4999394;28;20038;-77
2024/02/21 01:13:51;;;;;;;4.33;1.37;;;15.50;99.90;;;;;;5001199;28;20383;-78
2024/02/21 01:16:17;;;;;;;3.50;1.50;;;15.60;99.90;;;;;;4998032;28;20035;-78
2024/02/21 01:18:43;;;;;;;6.30;1.73;;;15.50;99.90;;;;;;4997222;28;20107;-79
2024/02/21 01:21:09;;;;;;;6.40;1.30;;;15.50;99.90;;;;;;4999409;28;20036;-78
2024/02/21 01:23:36;;;;;;;2.97;1.33;;;15.50;99.90;;;;;;4995036;28;20538;-78
2024/02/21 01:26:03;;;;;;;4.85;1.60;;;15.50;99.90;;;;;;5002220;28;20030;-78
2024/02/21 01:28:29;;;;;;;5.40;1.55;;;15.50;99.90;;;;;;5007827;28;20034;-77
2024/02/21 01:30:54;;;;;;;1.87;1.20;;;15.50;99.90;;;;;;5002818;28;20036;-79
2024/02/21 01:33:20;;;;;;;3.33;1.17;;;15.50;99.90;;;;;;4998600;28;20046;-78
2024/02/21 01:35:46;;;;;;;3.37;1.40;;;15.50;99.90;;;;;;4999354;28;20490;-78
2024/02/21 01:38:13;;;;;;;5.63;1.00;;;15.50;99.90;;;;;;5001317;28;20041;-78
2024/02/21 01:40:38;;;;;;;3.28;1.40;;;15.50;99.90;;;;;;5006613;28;20447;-78
2024/02/21 01:43:19;;;;;;;5.17;1.50;;;15.50;99.90;;;;;;4999567;28;20038;-78
2024/02/21 01:45:55;;;;;;;6.50;1.67;;;15.50;99.90;;;;;;4992399;28;20779;-78
2024/02/21 01:48:25;;;;;;;5.30;1.08;;;15.50;99.90;;;;;;4992373;28;20124;-79
2024/02/21 01:50:51;;;;;;;3.85;1.27;;;15.50;99.90;;;;;;5001683;28;20044;-77
2024/02/21 01:53:21;;;;;;;4.35;1.08;;;15.50;99.90;;;;;;4997296;28;20027;-78
2024/02/21 01:55:47;;;;;;;6.75;1.63;;;15.40;99.90;;;;;;4993914;28;20089;-78
2024/02/21 01:58:17;;;;;;;4.22;1.30;;;15.50;99.90;;;;;;4992790;28;20035;-79
2024/02/21 02:00:43;;;;;;;5.28;1.13;;;15.50;99.90;;;;;;5001830;28;20507;-78
2024/02/21 02:03:19;;;;;;;3.67;1.08;;;15.50;99.90;;;;;;5001963;28;20116;-79
2024/02/21 02:05:46;;;;;;;8.30;1.77;;;15.50;99.90;;;;;;4998306;28;20049;-78
2024/02/21 02:08:16;;;;;;;7.22;1.40;;;15.40;99.90;;;;;;5006295;28;20454;-78
2024/02/21 02:10:42;;;;;;;8.88;1.58;;;15.50;99.90;;;;;;5004466;28;20522;-79
2024/02/21 02:13:09;;;;;;;2.47;1.40;;;15.40;99.90;;;;;;5002630;28;20026;-78
2024/02/21 02:15:42;;;;;;;4.13;1.42;;;15.40;99.90;;;;;;4998048;28;20415;-78
2024/02/21 02:18:08;;;;;;;2.67;1.13;;;15.50;99.90;;;;;;4999536;28;20026;-78
2024/02/21 02:20:35;;;;;;;4.45;1.40;;;15.50;99.90;;;;;;5007806;28;20368;-79
2024/02/21 02:23:10;;;;;;;7.90;1.30;;;15.40;99.90;;;;;;5001197;28;20049;-79
2024/02/21 02:25:37;;;;;;;6.88;1.40;;;15.40;99.90;;;;;;5002499;28;20073;-77
2024/02/21 02:28:07;;;;;;;4.30;1.33;;;15.40;99.90;;;;;;5005339;28;20096;-79
2024/02/21 02:30:34;;;;;;;3.83;1.42;;;15.40;99.90;;;;;;5002682;28;20038;-79
2024/02/21 02:33:00;;;;;;;7.57;1.35;;;15.40;99.90;;;;;;5004570;28;20027;-78
2024/02/21 02:35:26;;;;;;;7.70;1.63;;;15.40;99.90;;;;;;5003101;28;20035;-79
2024/02/21 02:37:51;;;;;;;2.73;1.00;;;15.40;99.90;;;;;;5000970;28;20030;-78
2024/02/21 02:40:20;;;;;;;5.83;1.40;;;15.40;99.90;;;;;;5008246;28;20537;-78
2024/02/21 02:42:48;;;;;;;5.18;1.23;;;15.40;99.90;;;;;;5006724;28;20746;-78
2024/02/21 02:45:18;;;;;;;5.45;1.50;;;15.40;99.90;;;;;;5001885;28;20026;-78
2024/02/21 02:47:46;;;;;;;4.65;1.15;;;15.40;99.90;;;;;;4999087;28;20502;-79
2024/02/21 02:50:13;;;;;;;2.80;0.98;;;15.40;99.90;;;;;;4999940;28;20030;-79
2024/02/21 02:52:39;;;;;;;4.35;1.58;;;15.40;99.90;;;;;;5001070;28;20102;-78
2024/02/21 02:55:05;;;;;;;4.13;1.60;;;15.40;99.90;;;;;;5001299;28;20482;-78
2024/02/21 02:57:32;;;;;;;5.93;1.33;;;15.30;99.90;;;;;;5007241;28;20039;-78
2024/02/21 02:59:58;;;;;;;4.18;1.33;;;15.30;99.90;;;;;;4998066;28;20168;-78
2024/02/21 03:02:23;;;;;;;8.77;1.67;;;15.30;99.90;;;;;;4999823;28;20049;-79
2024/02/21 03:04:49;;;;;;;6.90;1.60;;;15.30;99.90;;;;;;5002755;28;20025;-79
2024/02/21 03:07:16;;;;;;;7.37;1.97;;;15.30;99.90;;;;;;5011568;28;20121;-79
2024/02/21 03:09:44;;;;;;;4.60;1.38;;;15.30;99.90;;;;;;4999186;28;20395;-78
2024/02/21 03:12:11;;;;;;;10.40;1.42;;;15.30;99.90;;;;;;5003990;28;20375;-78
2024/02/21 03:14:36;;;;;;;5.38;1.17;;;15.30;99.90;;;;;;5011914;28;20088;-78
2024/02/21 03:17:03;;;;;;;3.30;1.30;;;15.30;99.90;;;;;;4998936;28;20030;-78
2024/02/21 03:19:29;;;;;;;5.78;1.30;;;15.30;99.90;;;;;;4998444;28;20034;-79
2024/02/21 03:21:55;;;;;;;7.07;1.47;;;15.30;99.90;;;;;;5008736;28;20372;-79
2024/02/21 03:24:21;;;;;;;4.40;1.30;;;15.30;99.90;;;;;;5007404;28;20076;-79
2024/02/21 03:26:48;;;;;;;7.05;1.73;;;15.30;99.90;;;;;;4998193;28;20030;-78
2024/02/21 03:29:15;;;;;;;4.68;1.35;;;15.30;99.90;;;;;;4999590;28;20476;-79
2024/02/21 03:31:41;;;;;;;;;;;15.30;99.90;;;;;;4994460;28;20080;-78
2024/02/21 03:34:06;;;;;;;3.88;1.40;;;15.30;99.90;;;;;;5002509;28;19913;-78
2024/02/21 03:36:32;;;;;;;5.60;1.30;;;15.30;99.90;;;;;;4999392;28;20038;-78
2024/02/21 03:38:58;;;;;;;2.00;0.80;;;15.30;99.90;;;;;;5002174;28;20046;-78
2024/02/21 03:41:23;;;;;;;6.87;1.33;;;15.30;99.90;;;;;;5000653;28;20045;-79
2024/02/21 03:43:49;;;;;;;4.10;1.40;;;15.30;99.90;;;;;;5000440;28;20061;-78
2024/02/21 03:46:15;;;;;;;5.33;1.13;;;15.30;99.90;;;;;;5002585;28;20035;-79
2024/02/21 03:48:41;;;;;;;3.65;1.17;;;15.20;99.90;;;;;;5001315;28;20118;-78
2024/02/21 03:51:07;;;;;;;2.43;0.90;;;15.20;99.90;;;;;;5001773;28;20044;-79
2024/02/21 03:53:33;;;;;;;9.00;1.43;;;15.30;99.90;;;;;;5002337;28;20125;-78
2024/02/21 03:56:04;;;;;;;5.40;1.60;;;15.20;99.90;;;;;;5004562;28;20061;-78
2024/02/21 03:58:30;;;;;;;2.22;1.05;;;15.30;99.90;;;;;;5002529;28;20076;-78
2024/02/21 04:00:56;;;;;;;6.45;1.50;;;15.30;99.90;;;;;;4992192;28;20162;-78
2024/02/21 04:03:22;;;;;;;5.88;1.13;;;15.20;99.90;;;;;;5000876;28;20129;-79
2024/02/21 04:05:48;;;;;;;3.63;1.13;;;15.20;99.90;;;;;;5000984;28;20121;-78
2024/02/21 04:08:14;;;;;;;5.10;1.17;;;15.20;99.90;;;;;;5008062;28;20053;-77
2024/02/21 04:10:39;;;;;;;2.30;1.10;;;15.20;99.90;;;;;;5004938;28;20049;-79
2024/02/21 04:13:07;;;;;;;5.60;1.20;;;15.20;99.90;;;;;;5003875;28;20033;-79
2024/02/21 04:15:32;;;;;;;3.35;1.33;;;15.20;99.90;;;;;;5000185;28;20039;-79
2024/02/21 04:17:58;;;;;;;3.23;0.90;;;15.20;99.90;;;;;;4996860;28;20181;-78
2024/02/21 04:20:24;;;;;;;3.03;1.10;;;15.20;99.90;;;;;;4998363;28;20038;-79
2024/02/21 04:22:50;;;;;;;3.07;1.00;;;15.20;99.90;;;;;;5009051;28;20112;-79
2024/02/21 04:25:16;;;;;;;6.10;1.67;;;15.20;99.90;;;;;;4999868;28;20029;-78
2024/02/21 04:27:41;;;;;;;5.47;1.10;;;15.20;99.90;;;;;;4998185;28;20069;-77
2024/02/21 04:30:09;;;;;;;8.17;1.77;;;15.20;99.90;;;;;;4999820;28;20030;-78
2024/02/21 04:32:35;;;;;;;6.13;1.40;;;15.10;99.90;;;;;;5003641;28;20057;-77
2024/02/21 04:35:01;;;;;;;3.37;0.77;;;15.10;99.90;;;;;;4998087;28;20065;-77
2024/02/21 04:37:26;;;;;;;5.83;1.73;;;15.10;99.90;;;;;;4999098;28;20026;-78
2024/02/21 04:39:52;;;;;;;6.60;1.53;;;15.20;99.90;;;;;;4999503;28;20395;-78
2024/02/21 04:42:18;;;;;;;9.03;1.40;;;15.10;99.90;;;;;;4998392;28;20671;-77
2024/02/21 04:44:44;;;;;;;8.07;1.10;;;15.20;99.90;;;;;;5003434;28;20065;-78
2024/02/21 04:47:10;;;;;;;3.77;1.20;;;15.20;99.90;;;;;;4992103;28;20080;-79
2024/02/21 04:49:36;;;;;;;3.83;1.08;;;15.20;99.90;;;;;;5002074;28;20475;-78
2024/02/21 04:52:02;;;;;;;2.83;1.10;;;15.10;99.90;;;;;;5005423;28;20125;-78
2024/02/21 04:54:27;;;;;;;2.37;0.90;;;15.10;99.90;;;;;;5005817;28;20117;-78
2024/02/21 04:56:53;;;;;;;2.93;1.30;;;15.10;99.90;;;;;;4997337;28;20034;-78
2024/02/21 04:59:19;;;;;;;4.20;1.27;;;15.10;99.90;;;;;;4999112;28;20041;-77
2024/02/21 05:01:45;;;;;;;2.67;0.87;;;15.10;99.90;;;;;;4997623;28;20484;-79
2024/02/21 05:04:10;;;;;;;4.93;1.37;;;15.10;99.90;;;;;;4999219;28;20030;-78
2024/02/21 05:06:40;;;;;;;2.73;1.00;;;15.00;99.90;;;;;;5004078;28;20075;-78
2024/02/21 05:09:07;;;;;;;4.95;1.25;;;15.10;99.90;;;;;;4994686;28;20060;-78
2024/02/21 05:11:32;;;;;;;6.53;1.30;;;15.10;99.90;;;;;;5005931;28;20097;-78
2024/02/21 05:13:58;;;;;;;3.73;1.27;;;15.10;99.90;;;;;;4999354;28;20098;-79
2024/02/21 05:16:24;;;;;;;6.10;1.27;;;15.10;99.90;;;;;;5001333;28;20040;-77
2024/02/21 05:18:49;;;;;;;4.10;1.47;;;15.10;99.90;;;;;;5008965;28;20030;-78
2024/02/21 05:21:15;;;;;;;4.90;1.00;;;15.00;99.90;;;;;;5000883;28;20092;-79
2024/02/21 05:23:41;;;;;;;3.87;1.33;;;15.10;99.90;;;;;;5000050;28;20124;-79
2024/02/21 05:26:07;;;;;;;5.10;1.50;;;15.00;99.90;;;;;;5001784;28;20487;-78
2024/02/21 05:28:32;;;;;;;5.03;1.40;;;15.00;99.90;;;;;;4999377;28;20026;-77
2024/02/21 05:30:58;;;;;;;3.97;1.50;;;15.10;99.90;;;;;;5000613;28;20034;-78
2024/02/21 05:33:24;;;;;;;2.10;0.97;;;15.00;99.90;;;;;;5001496;28;20073;-78
2024/02/21 05:35:51;;;;;;;3.60;1.42;;;15.00;99.90;;;;;;4995733;28;20108;-78
2024/02/21 05:38:17;;;;;;;5.70;1.55;;;15.00;99.90;;;;;;4999706;28;20034;-80
2024/02/21 05:40:44;;;;;;;2.10;1.08;;;15.00;99.90;;;;;;5000869;28;20022;-79
2024/02/21 05:43:10;;;;;;;;;;;15.00;99.90;;;;;;4996120;28;20531;-78
2024/02/21 05:45:36;;;;;;;2.83;1.00;;;15.00;99.90;;;;;;5007850;28;19920;-78
2024/02/21 05:48:03;;;;;;;1.45;0.88;;;15.00;99.90;;;;;;4992834;28;20038;-78
2024/02/21 05:50:29;;;;;;;4.00;1.25;;;15.00;99.90;;;;;;4996372;28;20045;-78
2024/02/21 05:52:55;;;;;;;3.67;1.17;;;14.90;99.90;;;;;;5004867;28;20034;-79
2024/02/21 05:55:21;;;;;;;2.65;1.25;;;15.00;99.90;;;;;;4994193;28;20689;-78
2024/02/21 05:57:47;;;;;;;4.80;1.48;;;15.00;99.90;;;;;;4999216;28;20030;-78
2024/02/21 06:00:14;;;;;;;2.72;1.50;;;14.90;99.90;;;;;;4997450;28;20030;-78
2024/02/21 06:02:39;;;;;;;5.53;1.85;;;15.00;99.90;;;;;;5005132;28;20034;-78
2024/02/21 06:05:07;;;;;;;4.80;1.33;;;14.90;99.90;;;;;;5008023;28;20033;-78
2024/02/21 06:07:34;;;;;;;1.90;1.00;;;14.90;99.90;;;;;;5006915;28;20129;-79
2024/02/21 06:10:00;;;;;;;;;;;14.90;99.90;;;;;;5001561;28;20430;-79
2024/02/21 06:12:25;;;;;;;4.03;1.52;;;14.90;99.90;;;;;;4996006;28;19917;-78
2024/02/21 06:14:52;;;;;;;7.67;1.53;;;14.90;99.90;;;;;;5001160;28;20097;-78
2024/02/21 06:17:18;;;;;;;6.05;1.45;;;14.90;99.90;;;;;;5016873;28;20084;-78
2024/02/21 06:19:44;;;;;;;4.23;1.40;;;14.90;99.90;;;;;;4994681;28;20476;-78
2024/02/21 06:22:10;;;;;;;;;;;14.90;99.90;;;;;;5003560;28;20022;-78
2024/02/21 06:24:36;;;;;;;2.35;1.20;;;14.90;99.90;;;;;;5005363;28;20223;-77
2024/02/21 06:27:08;;;;;;;3.87;1.47;;;14.90;99.90;;;;;;5002162;28;20034;-78
2024/02/21 06:29:34;;;;;;;5.28;2.08;;;14.90;99.90;;;;;;4992980;28;20303;-78
2024/02/21 06:32:00;;;;;;;4.97;1.23;;;14.90;99.90;;;;;;5005420;28;20022;-77
2024/02/21 06:34:26;;;;;;;4.43;1.35;;;14.90;99.90;;;;;;5001786;28;20037;-79
2024/02/21 06:36:52;;;;;;;4.10;1.57;;;14.80;99.90;;;;;;5011355;28;20037;-78
2024/02/21 06:39:18;;;;;;;4.70;1.30;;;14.90;99.90;;;;;;5001978;28;20125;-77
2024/02/21 06:41:44;;;;;;;6.82;1.35;;;14.90;99.90;;;;;;4999346;28;20423;-78
2024/02/21 06:44:10;;;;;;;3.93;1.37;;;14.80;99.90;;;;;;5005206;28;20034;-77
2024/02/21 06:46:35;;;;;;;5.83;1.47;;;14.80;99.90;;;;;;5000176;28;20030;-79
2024/02/21 06:49:03;;;;;;;3.17;1.30;;;14.80;99.90;;;;;;5002297;28;20038;-79
2024/02/21 06:51:29;;;;;;;6.30;1.30;;;14.80;99.90;;;;;;5006466;28;20452;-78
2024/02/21 06:53:55;;;;;;;3.20;1.75;;;14.80;99.90;;;;;;4996234;28;20044;-79
2024/02/21 06:56:28;;;;;;;3.43;1.33;;;14.80;99.90;;;;;;4998747;28;20038;-78
2024/02/21 06:58:54;;;;;;;3.65;1.30;;;14.80;99.90;;;;;;4998280;28;20278;-78
2024/02/21 07:01:20;;;;;;;4.05;1.58;;;14.80;99.90;;;;;;5006626;28;20065;-78
2024/02/21 07:03:46;;;;;;;2.33;1.30;;;14.80;99.90;;;;;;5001273;28;20037;-78
2024/02/21 07:06:12;;;;;;;1.77;1.37;;;14.80;99.90;;;;;;4997471;28;20085;-79
2024/02/21 07:08:38;;;;;;;3.70;1.38;;;14.80;99.90;;;;;;5006266;28;20092;-78
2024/02/21 07:11:05;;;;;;;3.53;1.70;;;14.80;99.90;;;;;;5000052;28;20068;-78
2024/02/21 07:13:31;;;;;;;4.93;1.92;;;14.80;99.90;;;;;;4997542;28;20061;-78
2024/02/21 07:15:57;;;;;;;3.67;1.60;;;14.80;99.90;;;;;;4996197;28;20084;-78
2024/02/21 07:18:25;;;;;;;3.63;1.30;;;14.80;99.90;;;;;;5006276;28;20064;-78
2024/02/21 07:20:51;;;;;;;2.38;1.40;;;14.80;99.90;;;;;;5007044;28;20793;-78
2024/02/21 07:23:18;;;;;;;4.05;1.75;;;14.80;99.90;;;;;;5001699;28;20056;-77
2024/02/21 07:25:43;;;;;;;4.03;1.70;;;14.80;99.90;;;;;;4999864;28;20046;-78
2024/02/21 07:28:09;;;;;;;5.27;1.77;;;14.80;99.90;;;;;;5005551;28;20045;-77
2024/02/21 07:30:35;;;;;;;3.97;1.60;;;14.80;99.90;;;;;;5003432;28;20532;-78
2024/02/21 07:33:01;;;;;;;2.57;1.53;;;14.70;99.90;;;;;;5003153;28;20110;-78
2024/02/21 07:35:28;;;;;;;4.97;1.53;;;14.70;99.90;;;;;;5009558;28;20350;-77
2024/02/21 07:37:53;;;;;;;;;;;14.70;99.90;;;;;;5001291;28;20117;-78
2024/02/21 07:40:19;;;;;;;5.27;1.60;;;14.80;99.90;;;;;;5009881;28;20370;-77
2024/02/21 07:42:45;;;;;;;2.57;1.83;;;14.80;99.90;;;;;;5010869;28;20030;-78
2024/02/21 07:45:10;;;;;;;3.67;1.57;;;14.80;99.90;;;;;;4998483;28;20041;-78
2024/02/21 07:47:37;;;;;;;2.73;1.37;;;14.80;99.90;;;;;;5006610;28;20108;-78
2024/02/21 07:50:03;;;;;;;1.70;1.50;;;14.70;99.90;;;;;;5004645;28;20037;-77
2024/02/21 07:52:29;;;;;;;;;;;15.00;99.90;;;;;;4998193;28;20034;-78
2024/02/21 07:54:55;;;;;;;3.90;1.90;;;15.10;99.90;;;;;;5011087;28;20008;-76
2024/02/21 07:57:21;;;;;;;5.63;1.97;;;15.20;99.90;;;;;;5001209;28;20117;-77
2024/02/21 07:59:48;;;;;;;6.18;1.80;;;15.20;99.90;;;;;;5002136;28;20029;-78
2024/02/21 08:02:14;;;;;;;9.63;2.50;;;15.20;99.90;;;;;;5008241;28;20044;-77
2024/02/21 08:04:40;;;;;;;15.77;3.10;;;15.30;99.90;;;;;;5008000;28;20040;-77
2024/02/21 08:07:06;;;;;;;6.37;1.93;;;15.30;99.90;;;;;;4997149;28;20042;-78
2024/02/21 08:09:32;;;;;;;11.43;2.67;;;15.30;99.90;;;;;;4997872;28;20287;-77
2024/02/21 08:11:58;;;;;;;50.57;22.53;;;15.20;99.90;;;;;;5004103;28;20083;-77
2024/02/21 08:14:24;;;;;;;38.77;16.57;;;15.40;99.90;;;;;;4995181;28;20049;-78
2024/02/21 08:16:53;;;;;;;35.28;14.55;;;15.40;99.90;;;;;;4996959;28;20030;-77
2024/02/21 08:19:19;;;;;;;29.80;12.57;;;15.40;99.90;;;;;;4995510;28;20039;-77
2024/02/21 08:21:46;;;;;;;32.00;12.57;;;15.40;99.90;;;;;;5001948;28;20048;-78
2024/02/21 08:24:13;;;;;;;34.85;11.70;;;15.40;99.90;;;;;;5002991;28;20304;-78
2024/02/21 08:26:42;;;;;;;24.70;10.38;;;15.40;99.90;;;;;;5009238;28;20384;-78
2024/02/21 08:29:07;;;;;;;25.55;9.88;;;15.30;99.90;;;;;;4996864;28;20073;-77
2024/02/21 08:31:34;;;;;;;20.47;9.87;;;15.40;99.90;;;;;;5007620;28;20061;-78
2024/02/21 08:34:03;;;;;;;27.67;10.02;;;15.40;99.90;;;;;;5005665;28;20035;-78
2024/02/21 08:36:30;;;;;;;20.55;8.60;;;15.40;99.90;;;;;;5001752;28;20167;-78
2024/02/21 08:38:56;;;;;;;18.42;8.60;;;15.40;99.90;;;;;;4999210;28;20083;-79
2024/02/21 08:41:23;;;;;;;15.17;7.40;;;15.40;99.90;;;;;;5001048;28;20487;-77
2024/02/21 08:43:50;;;;;;;165.02;98.95;;;15.50;99.90;;;;;;5007438;28;20033;-77
2024/02/21 08:46:16;;;;;;;51.83;29.70;;;15.40;99.90;;;;;;5003840;28;20479;-77
2024/02/21 08:48:43;;;;;;;43.07;22.57;;;15.50;99.90;;;;;;5003610;28;20022;-78
2024/02/21 08:51:08;;;;;;;;;;;15.50;99.90;;;;;;5005499;28;20022;-80
2024/02/21 08:53:34;;;;;;;39.97;24.03;;;15.50;99.90;;;;;;5010069;28;20286;-76
2024/02/21 08:56:00;;;;;;;46.70;27.03;;;15.50;99.90;;;;;;5009395;28;20120;-79
2024/02/21 08:58:26;;;;;;;43.22;23.83;;;15.50;99.90;;;;;;4998475;28;20044;-79
2024/02/21 09:00:52;;;;;;;41.53;22.75;;;15.50;99.90;;;;;;4992863;28;20532;-77
2024/02/21 09:03:19;;;;;;;43.27;21.00;;;15.60;99.90;;;;;;5004064;28;20171;-79
2024/02/21 09:05:46;;;;;;;31.73;20.48;;;15.60;99.90;;;;;;5004643;28;20117;-78
2024/02/21 09:08:12;;;;;;;34.80;20.05;;;15.60;99.90;;;;;;5005647;28;20184;-80
2024/02/21 09:10:39;;;;;;;38.17;25.30;;;15.60;99.90;;;;;;5001508;28;20168;-79
2024/02/21 09:13:04;;;;;;;;;;;15.60;99.90;;;;;;5005844;28;20414;-77
2024/02/21 09:15:31;;;;;;;36.03;18.40;;;15.60;99.90;;;;;;4997041;28;20403;-79
2024/02/21 09:17:57;;;;;;;27.92;17.98;;;15.60;99.90;;;;;;5000467;28;20030;-80
2024/02/21 09:20:23;;;;;;;29.37;17.37;;;15.60;99.90;;;;;;5001541;28;20046;-78
2024/02/21 09:22:48;;;;;;;31.80;16.27;;;15.60;99.90;;;;;;5006234;28;20031;-78
2024/02/21 09:25:15;;;;;;;27.63;15.93;;;15.60;99.90;;;;;;4998279;28;20033;-79
2024/02/21 09:27:40;;;;;;;35.15;16.55;;;15.60;99.90;;;;;;4999499;28;20040;-78
2024/02/21 09:30:06;;;;;;;30.93;16.30;;;15.70;99.90;;;;;;5000710;28;20157;-78
2024/02/21 09:32:32;;;;;;;31.38;16.10;;;15.70;99.90;;;;;;5006000;28;20049;-78
2024/02/21 09:34:58;;;;;;;37.30;15.80;;;15.80;99.90;;;;;;5002741;28;20034;-78
2024/02/21 09:37:24;;;;;;;27.63;13.57;;;15.80;99.90;;;;;;4998887;28;20042;-77
2024/02/21 09:39:52;;;;;;;25.40;13.63;;;15.80;99.90;;;;;;5003344;28;20281;-77
2024/02/21 09:42:20;;;;;;;31.10;15.38;;;15.80;99.90;;;;;;5005858;28;20089;-77
2024/02/21 09:44:46;;;;;;;25.30;14.98;;;15.90;99.90;;;;;;5005285;28;20084;-77
2024/02/21 09:47:22;;;;;;;27.37;14.43;;;15.90;99.90;;;;;;5005732;28;20034;-78
2024/02/21 09:49:48;;;;;;;30.63;14.15;;;15.90;99.90;;;;;;4991416;28;20045;-78
2024/02/21 09:52:15;;;;;;;31.10;13.87;;;15.90;99.90;;;;;;5001721;28;20415;-79
2024/02/21 09:54:44;;;;;;;23.50;12.73;;;15.90;99.90;;;;;;5000588;28;20129;-78
2024/02/21 09:57:11;;;;;;;29.95;14.13;;;15.90;99.90;;;;;;5003603;28;20026;-78
2024/02/21 09:59:37;;;;;;;24.35;14.02;;;16.00;99.90;;;;;;5006460;28;20065;-78
2024/02/21 10:02:04;;;;;;;25.38;12.65;;;16.10;99.90;;;;;;5004275;28;20411;-78
2024/02/21 10:04:30;;;;;;;;;;;16.10;99.90;;;;;;5003175;28;20022;-77
2024/02/21 10:06:56;;;;;;;18.13;11.07;;;16.10;99.90;;;;;;4998658;28;20277;-78
2024/02/21 10:09:30;;;;;;;40.20;19.80;;;16.10;99.90;;;;;;5010472;28;20096;-78
2024/02/21 10:12:19;;;;;;;30.85;13.60;;;16.10;99.90;;;;;;5006285;28;20030;-79
2024/02/21 10:14:44;;;;;;;29.75;12.50;;;16.10;99.90;;;;;;5006759;28;20030;-79
2024/02/21 10:17:19;;;;;;;26.17;12.80;;;16.20;99.90;;;;;;5006075;28;20080;-79
2024/02/21 10:19:47;;;;;;;25.42;12.18;;;16.10;99.90;;;;;;5007707;28;20034;-78
2024/02/21 10:22:15;;;;;;;23.40;11.80;;;16.20;99.90;;;;;;5001236;28;20037;-78
2024/02/21 10:24:43;;;;;;;27.55;12.40;;;16.20;99.90;;;;;;5006810;28;20034;-77
2024/02/21 10:27:10;;;;;;;25.30;11.98;;;16.40;99.90;;;;;;5001477;28;20444;-78
2024/02/21 10:29:37;;;;;;;29.27;11.45;;;16.50;99.90;;;;;;5006787;28;20033;-79
2024/02/21 10:32:07;;;;;;;24.60;10.63;;;16.50;99.90;;;;;;5000088;28;20042;-78
2024/02/21 10:34:33;;;;;;;26.20;12.20;;;16.50;99.90;;;;;;4999170;28;20468;-78
2024/02/21 10:37:06;;;;;;;40.72;23.75;;;16.60;99.90;;;;;;4999895;28;20113;-78
2024/02/21 10:39:33;;;;;;;28.13;15.95;;;16.60;99.90;;;;;;5005064;28;20088;-80
2024/02/21 10:42:04;;;;;;;29.48;13.25;;;16.70;99.90;;;;;;5001133;28;20057;-79
2024/02/21 10:44:36;;;;;;;33.58;13.27;;;16.70;99.90;;;;;;4996113;28;20046;-79
2024/02/21 10:47:10;;;;;;;30.77;14.00;;;16.70;99.90;;;;;;5008627;28;20033;-79
2024/02/21 10:49:40;;;;;;;28.25;12.85;;;16.70;99.90;;;;;;4999030;28;20030;-78
2024/02/21 10:52:21;;;;;;;27.52;11.95;;;16.70;99.90;;;;;;4996236;28;20034;-79
2024/02/21 10:55:14;;;;;;;19.73;11.32;;;16.60;99.90;;;;;;4999145;28;20061;-77
2024/02/21 10:57:40;;;;;;;19.00;10.90;;;16.60;99.90;;;;;;5009075;28;20092;-77
2024/02/21 11:00:12;;;;;;;20.90;10.07;;;16.60;99.90;;;;;;4999338;28;20037;-78
2024/02/21 11:02:39;;;;;;;21.25;11.77;;;16.70;99.90;;;;;;5002505;28;20161;-79
2024/02/21 11:05:06;;;;;;;23.45;10.63;;;16.60;99.90;;;;;;5002070;28;20030;-79
2024/02/21 11:07:33;;;;;;;;;;;16.60;99.90;;;;;;5005791;28;20531;-77
2024/02/21 11:09:59;;;;;;;17.90;10.70;;;16.60;99.90;;;;;;5001787;28;20662;-78
2024/02/21 11:12:27;;;;;;;22.50;9.75;;;16.60;99.90;;;;;;5003191;28;20474;-77
2024/02/21 11:15:04;;;;;;;18.23;9.70;;;16.50;99.90;;;;;;4999923;28;20026;-77
2024/02/21 11:17:30;;;;;;;18.25;8.98;;;16.60;99.90;;;;;;5006508;28;20038;-78
2024/02/21 11:19:55;;;;;;;20.13;9.43;;;16.60;99.90;;;;;;4998590;28;20037;-77
2024/02/21 11:22:22;;;;;;;18.87;8.83;;;16.60;99.90;;;;;;5010536;28;20041;-78
2024/02/21 11:24:48;;;;;;;19.60;9.95;;;16.50;99.90;;;;;;4997638;28;20077;-77
2024/02/21 11:27:22;;;;;;;17.30;8.87;;;16.50;99.90;;;;;;5005861;28;20034;-78
2024/02/21 11:29:56;;;;;;;15.68;8.40;;;16.50;99.90;;;;;;4994293;28;20037;-77
2024/02/21 11:32:22;;;;;;;19.27;9.02;;;16.50;99.90;;;;;;5001885;28;20482;-77
2024/02/21 11:35:01;;;;;;;25.17;8.73;;;16.50;99.90;;;;;;5006754;28;20036;-78
2024/02/21 11:37:28;;;;;;;17.52;7.45;;;16.50;99.90;;;;;;5000493;28;20117;-77
2024/02/21 11:39:54;;;;;;;;;;;16.50;99.90;;;;;;5005257;28;20030;-77
2024/02/21 11:42:20;;;;;;;15.88;8.13;;;16.50;99.90;;;;;;5003647;28;20009;-76
2024/02/21 11:44:46;;;;;;;19.43;7.70;;;16.50;99.90;;;;;;5009603;28;20140;-77
2024/02/21 11:47:14;;;;;;;15.13;7.80;;;16.60;99.90;;;;;;5006697;28;20030;-78
2024/02/21 11:49:45;;;;;;;13.65;7.03;;;16.60;99.90;;;;;;5000953;28;20480;-78
2024/02/21 11:52:12;;;;;;;10.50;7.25;;;16.60;99.90;;;;;;5000799;28;20061;-77
2024/02/21 11:54:37;;;;;;;15.73;7.15;;;16.80;99.90;;;;;;4999797;28;20057;-77
2024/02/21 11:57:06;;;;;;;13.73;6.57;;;16.90;99.90;;;;;;5003195;28;20514;-77
2024/02/21 11:59:33;;;;;;;12.68;6.78;;;17.00;99.90;;;;;;5004661;28;20117;-77
2024/02/21 12:02:00;;;;;;;7.68;5.80;;;17.00;99.90;;;;;;5001526;28;20025;-77
2024/02/21 12:04:25;;;;;;;14.85;7.10;;;17.10;99.90;;;;;;4995924;28;20663;-77
2024/02/21 12:06:54;;;;;;;10.90;6.37;;;17.20;99.90;;;;;;5003327;28;20034;-77
2024/02/21 12:09:20;;;;;;;21.05;6.97;;;17.20;99.90;;;;;;5003236;28;20085;-77
2024/02/21 12:11:46;;;;;;;20.20;6.55;;;17.20;99.90;;;;;;5006109;28;20139;-79
2024/02/21 12:14:16;;;;;;;13.13;6.50;;;17.30;99.90;;;;;;5005596;28;20040;-77
2024/02/21 12:16:47;;;;;;;12.77;5.82;;;17.30;99.90;;;;;;5005900;28;20802;-79
2024/02/21 12:19:13;;;;;;;13.68;6.70;;;17.40;99.90;;;;;;5005932;28;20470;-78
2024/02/21 12:21:40;;;;;;;16.55;6.38;;;17.30;99.90;;;;;;5008137;28;20026;-78
2024/02/21 12:24:18;;;;;;;17.05;5.90;;;17.30;99.90;;;;;;5011713;28;20030;-78
2024/02/21 12:26:46;;;;;;;9.77;5.30;;;17.20;99.90;;;;;;5006685;28;20080;-78
2024/02/21 12:29:12;;;;;;;11.15;6.15;;;17.20;99.90;;;;;;4999677;28;20038;-76
2024/02/21 12:31:41;;;;;;;59.17;28.00;;;17.20;99.90;;;;;;5006932;28;20554;-78
2024/02/21 12:34:06;;;;;;;23.30;10.55;;;17.10;99.90;;;;;;5003209;28;20541;-78
2024/02/21 12:36:33;;;;;;;28.40;11.93;;;17.20;99.90;;;;;;5007762;28;20034;-79
2024/02/21 12:39:00;;;;;;;31.10;11.90;;;17.20;99.90;;;;;;5006438;28;20105;-78
2024/02/21 12:41:26;;;;;;;20.48;10.38;;;17.10;99.90;;;;;;4998174;28;20666;-79